sensor_id;sensor_type;location;lat;lon;timestamp;temperature;humidity
37158;DHT22;23050;51.776;22.638;2023-05-31T00:00:56;10.90;99.90
37158;DHT22;23050;51.776;22.638;2023-05-31T00:03:21;10.80;99.90
37158;DHT22;23050;51.776;22.638;2023-05-31T00:05:47;10.80;99.90
37158;DHT22;23050;51.776;22.638;2023-05-31T00:08:12;10.70;99.90
37158;DHT22;23050;51.776;22.638;2023-05-31T00:10:38;10.70;99.90
37158;DHT22;23050;51.776;22.638;2023-05-31T00:13:03;10.60;99.90
37158;DHT22;23050;51.776;22.638;2023-05-31T00:15:28;10.60;99.90
37158;DHT22;23050;51.776;22.638;2023-05-31T00:17:54;10.60;99.90
37158;DHT22;23050;51.776;22.638;2023-05-31T00:20:20;10.60;99.90
37158;DHT22;23050;51.776;22.638;2023-05-31T00:22:45;10.40;99.90
37158;DHT22;23050;51.776;22.638;2023-05-31T00:25:12;10.50;99.90
37158;DHT22;23050;51.776;22.638;2023-05-31T00:27:37;10.40;99.90
37158;DHT22;23050;51.776;22.638;2023-05-31T00:30:03;10.30;99.90
37158;DHT22;23050;51.776;22.638;2023-05-31T00:32:29;10.30;99.90
37158;DHT22;23050;51.776;22.638;2023-05-31T00:34:54;10.30;99.90
37158;DHT22;23050;51.776;22.638;2023-05-31T00:37:20;10.20;99.90
37158;DHT22;23050;51.776;22.638;2023-05-31T00:39:45;10.10;99.90
37158;DHT22;23050;51.776;22.638;2023-05-31T00:42:11;10.20;99.90
37158;DHT22;23050;51.776;22.638;2023-05-31T00:44:36;10.10;99.90
37158;DHT22;23050;51.776;22.638;2023-05-31T00:47:02;10.00;99.90
37158;DHT22;23050;51.776;22.638;2023-05-31T00:49:27;10.00;99.90
37158;DHT22;23050;51.776;22.638;2023-05-31T00:51:54;10.00;99.90
37158;DHT22;23050;51.776;22.638;2023-05-31T00:54:20;9.90;99.90
37158;DHT22;23050;51.776;22.638;2023-05-31T00:56:45;9.90;99.90
37158;DHT22;23050;51.776;22.638;2023-05-31T00:59:11;9.90;99.90
37158;DHT22;23050;51.776;22.638;2023-05-31T01:01:36;9.90;99.90
37158;DHT22;23050;51.776;22.638;2023-05-31T01:04:02;9.80;99.90
37158;DHT22;23050;51.776;22.638;2023-05-31T01:06:28;9.80;99.90
37158;DHT22;23050;51.776;22.638;2023-05-31T01:09:00;9.80;99.90
37158;DHT22;23050;51.776;22.638;2023-05-31T01:11:35;9.80;99.90
37158;DHT22;23050;51.776;22.638;2023-05-31T01:14:13;9.70;99.90
37158;DHT22;23050;51.776;22.638;2023-05-31T01:16:45;9.70;99.90
37158;DHT22;23050;51.776;22.638;2023-05-31T01:19:12;9.80;99.90
37158;DHT22;23050;51.776;22.638;2023-05-31T01:21:48;9.80;99.90
37158;DHT22;23050;51.776;22.638;2023-05-31T01:24:34;9.80;99.90
37158;DHT22;23050;51.776;22.638;2023-05-31T01:27:05;9.70;99.90
37158;DHT22;23050;51.776;22.638;2023-05-31T01:29:31;9.70;99.90
37158;DHT22;23050;51.776;22.638;2023-05-31T01:31:59;9.60;99.90
37158;DHT22;23050;51.776;22.638;2023-05-31T01:34:25;9.60;99.90
37158;DHT22;23050;51.776;22.638;2023-05-31T01:36:51;9.60;99.90
37158;DHT22;23050;51.776;22.638;2023-05-31T01:39:16;9.50;99.90
37158;DHT22;23050;51.776;22.638;2023-05-31T01:41:42;9.50;99.90
37158;DHT22;23050;51.776;22.638;2023-05-31T01:44:09;9.50;99.90
37158;DHT22;23050;51.776;22.638;2023-05-31T01:46:35;9.40;99.90
37158;DHT22;23050;51.776;22.638;2023-05-31T01:49:01;9.30;99.90
37158;DHT22;23050;51.776;22.638;2023-05-31T01:51:27;9.30;99.90
37158;DHT22;23050;51.776;22.638;2023-05-31T01:53:56;9.20;99.90
37158;DHT22;23050;51.776;22.638;2023-05-31T01:56:21;9.20;99.90
37158;DHT22;23050;51.776;22.638;2023-05-31T01:58:48;9.20;99.90
37158;DHT22;23050;51.776;22.638;2023-05-31T02:01:15;9.10;99.90
37158;DHT22;23050;51.776;22.638;2023-05-31T02:03:42;9.10;99.90
37158;DHT22;23050;51.776;22.638;2023-05-31T02:06:08;9.00;99.90
37158;DHT22;23050;51.776;22.638;2023-05-31T02:08:33;9.00;99.90
37158;DHT22;23050;51.776;22.638;2023-05-31T02:10:59;9.00;99.90
37158;DHT22;23050;51.776;22.638;2023-05-31T02:13:26;9.00;99.90
37158;DHT22;23050;51.776;22.638;2023-05-31T02:15:52;8.90;99.90
37158;DHT22;23050;51.776;22.638;2023-05-31T02:18:17;8.90;99.90
37158;DHT22;23050;51.776;22.638;2023-05-31T02:20:43;8.90;99.90
37158;DHT22;23050;51.776;22.638;2023-05-31T02:23:09;8.90;99.90
37158;DHT22;23050;51.776;22.638;2023-05-31T02:25:35;8.90;99.90
37158;DHT22;23050;51.776;22.638;2023-05-31T02:28:00;8.90;99.90
37158;DHT22;23050;51.776;22.638;2023-05-31T02:30:26;8.90;99.90
37158;DHT22;23050;51.776;22.638;2023-05-31T02:32:51;8.90;99.90
37158;DHT22;23050;51.776;22.638;2023-05-31T02:35:18;8.90;99.90
37158;DHT22;23050;51.776;22.638;2023-05-31T02:37:44;8.90;99.90
37158;DHT22;23050;51.776;22.638;2023-05-31T02:40:10;8.90;99.90
37158;DHT22;23050;51.776;22.638;2023-05-31T02:42:37;8.90;99.90
37158;DHT22;23050;51.776;22.638;2023-05-31T02:45:03;8.90;99.90
37158;DHT22;23050;51.776;22.638;2023-05-31T02:47:29;8.90;99.90
37158;DHT22;23050;51.776;22.638;2023-05-31T02:49:54;8.90;99.90
37158;DHT22;23050;51.776;22.638;2023-05-31T02:52:19;8.90;99.90
37158;DHT22;23050;51.776;22.638;2023-05-31T02:54:46;9.00;99.90
37158;DHT22;23050;51.776;22.638;2023-05-31T02:57:11;9.00;99.90
37158;DHT22;23050;51.776;22.638;2023-05-31T02:59:36;9.00;99.90
37158;DHT22;23050;51.776;22.638;2023-05-31T03:02:02;9.10;99.90
37158;DHT22;23050;51.776;22.638;2023-05-31T03:04:27;9.10;99.90
37158;DHT22;23050;51.776;22.638;2023-05-31T03:06:53;9.20;99.90
37158;DHT22;23050;51.776;22.638;2023-05-31T03:09:18;9.20;99.90
37158;DHT22;23050;51.776;22.638;2023-05-31T03:11:44;9.30;99.90
37158;DHT22;23050;51.776;22.638;2023-05-31T03:14:10;9.40;99.90
37158;DHT22;23050;51.776;22.638;2023-05-31T03:16:35;9.40;99.90
37158;DHT22;23050;51.776;22.638;2023-05-31T03:19:01;9.50;99.90
37158;DHT22;23050;51.776;22.638;2023-05-31T03:21:26;9.50;99.90
37158;DHT22;23050;51.776;22.638;2023-05-31T03:23:52;9.70;99.90
37158;DHT22;23050;51.776;22.638;2023-05-31T03:26:17;9.70;99.90
37158;DHT22;23050;51.776;22.638;2023-05-31T03:28:43;9.80;99.90
37158;DHT22;23050;51.776;22.638;2023-05-31T03:31:08;9.90;99.90
37158;DHT22;23050;51.776;22.638;2023-05-31T03:33:34;9.90;99.90
37158;DHT22;23050;51.776;22.638;2023-05-31T03:36:01;10.10;99.90
37158;DHT22;23050;51.776;22.638;2023-05-31T03:38:27;10.10;99.90
37158;DHT22;23050;51.776;22.638;2023-05-31T03:40:53;10.20;99.90
37158;DHT22;23050;51.776;22.638;2023-05-31T03:43:18;10.30;99.90
37158;DHT22;23050;51.776;22.638;2023-05-31T03:45:44;10.40;99.90
37158;DHT22;23050;51.776;22.638;2023-05-31T03:48:09;10.40;99.90
37158;DHT22;23050;51.776;22.638;2023-05-31T03:50:35;10.50;99.90
37158;DHT22;23050;51.776;22.638;2023-05-31T03:53:00;10.60;99.90
37158;DHT22;23050;51.776;22.638;2023-05-31T03:55:26;10.70;99.90
37158;DHT22;23050;51.776;22.638;2023-05-31T03:57:51;10.80;99.90
37158;DHT22;23050;51.776;22.638;2023-05-31T04:00:17;10.90;99.90
37158;DHT22;23050;51.776;22.638;2023-05-31T04:02:42;11.00;99.90
37158;DHT22;23050;51.776;22.638;2023-05-31T04:05:08;11.10;99.90
37158;DHT22;23050;51.776;22.638;2023-05-31T04:07:33;11.20;99.90
37158;DHT22;23050;51.776;22.638;2023-05-31T04:09:59;11.30;99.90
37158;DHT22;23050;51.776;22.638;2023-05-31T04:15:14;11.50;99.90
37158;DHT22;23050;51.776;22.638;2023-05-31T04:17:40;11.60;99.90
37158;DHT22;23050;51.776;22.638;2023-05-31T04:20:06;11.70;99.90
37158;DHT22;23050;51.776;22.638;2023-05-31T04:22:34;11.80;99.90
37158;DHT22;23050;51.776;22.638;2023-05-31T04:25:03;11.80;99.90
37158;DHT22;23050;51.776;22.638;2023-05-31T04:27:29;12.00;99.90
37158;DHT22;23050;51.776;22.638;2023-05-31T04:29:55;12.10;99.90
37158;DHT22;23050;51.776;22.638;2023-05-31T04:32:23;12.20;99.90
37158;DHT22;23050;51.776;22.638;2023-05-31T04:34:49;12.30;99.90
37158;DHT22;23050;51.776;22.638;2023-05-31T04:37:17;12.40;99.90
37158;DHT22;23050;51.776;22.638;2023-05-31T04:39:43;12.60;99.90
37158;DHT22;23050;51.776;22.638;2023-05-31T04:42:08;12.70;99.90
37158;DHT22;23050;51.776;22.638;2023-05-31T04:44:36;12.80;99.90
37158;DHT22;23050;51.776;22.638;2023-05-31T04:47:03;13.00;99.90
37158;DHT22;23050;51.776;22.638;2023-05-31T04:49:29;13.10;99.90
37158;DHT22;23050;51.776;22.638;2023-05-31T04:51:55;13.30;99.90
37158;DHT22;23050;51.776;22.638;2023-05-31T04:54:22;13.40;99.20
37158;DHT22;23050;51.776;22.638;2023-05-31T04:56:47;13.60;98.70
37158;DHT22;23050;51.776;22.638;2023-05-31T04:59:13;13.80;97.30
37158;DHT22;23050;51.776;22.638;2023-05-31T05:01:38;14.00;96.00
37158;DHT22;23050;51.776;22.638;2023-05-31T05:04:05;14.10;94.60
37158;DHT22;23050;51.776;22.638;2023-05-31T05:06:31;14.30;90.40
37158;DHT22;23050;51.776;22.638;2023-05-31T05:08:58;14.40;87.60
37158;DHT22;23050;51.776;22.638;2023-05-31T05:11:23;14.60;82.80
37158;DHT22;23050;51.776;22.638;2023-05-31T05:13:49;14.80;77.60
37158;DHT22;23050;51.776;22.638;2023-05-31T05:16:14;15.10;67.30
37158;DHT22;23050;51.776;22.638;2023-05-31T05:18:40;15.30;59.80
37158;DHT22;23050;51.776;22.638;2023-05-31T05:21:05;15.50;42.00
37158;DHT22;23050;51.776;22.638;2023-05-31T05:23:30;15.90;34.90
37158;DHT22;23050;51.776;22.638;2023-05-31T05:25:58;16.60;11.40
37158;DHT22;23050;51.776;22.638;2023-05-31T05:28:24;17.50;1.00
37158;DHT22;23050;51.776;22.638;2023-05-31T05:30:49;18.90;1.00
37158;DHT22;23050;51.776;22.638;2023-05-31T05:33:15;20.90;1.00
37158;DHT22;23050;51.776;22.638;2023-05-31T05:35:41;22.80;1.00
37158;DHT22;23050;51.776;22.638;2023-05-31T05:38:06;24.90;1.00
37158;DHT22;23050;51.776;22.638;2023-05-31T05:40:31;25.40;1.00
37158;DHT22;23050;51.776;22.638;2023-05-31T05:42:57;26.30;1.00
37158;DHT22;23050;51.776;22.638;2023-05-31T05:45:22;27.00;1.00
37158;DHT22;23050;51.776;22.638;2023-05-31T05:47:48;28.00;1.00
37158;DHT22;23050;51.776;22.638;2023-05-31T05:50:14;29.00;1.00
37158;DHT22;23050;51.776;22.638;2023-05-31T05:52:40;28.90;1.00
37158;DHT22;23050;51.776;22.638;2023-05-31T05:55:05;28.70;1.00
37158;DHT22;23050;51.776;22.638;2023-05-31T05:57:31;29.30;1.00
37158;DHT22;23050;51.776;22.638;2023-05-31T05:59:57;30.00;1.00
37158;DHT22;23050;51.776;22.638;2023-05-31T06:02:23;30.60;1.00
37158;DHT22;23050;51.776;22.638;2023-05-31T06:04:48;31.40;1.00
37158;DHT22;23050;51.776;22.638;2023-05-31T06:07:17;31.40;1.00
37158;DHT22;23050;51.776;22.638;2023-05-31T06:09:44;31.00;1.00
37158;DHT22;23050;51.776;22.638;2023-05-31T06:12:11;31.10;1.00
37158;DHT22;23050;51.776;22.638;2023-05-31T06:14:37;29.40;1.00
37158;DHT22;23050;51.776;22.638;2023-05-31T06:17:02;30.60;1.00
37158;DHT22;23050;51.776;22.638;2023-05-31T06:19:27;31.40;1.00
37158;DHT22;23050;51.776;22.638;2023-05-31T06:21:53;32.40;1.00
37158;DHT22;23050;51.776;22.638;2023-05-31T06:24:21;31.50;1.00
37158;DHT22;23050;51.776;22.638;2023-05-31T06:26:47;31.80;1.00
37158;DHT22;23050;51.776;22.638;2023-05-31T06:29:12;30.80;1.00
37158;DHT22;23050;51.776;22.638;2023-05-31T06:31:37;31.60;1.00
37158;DHT22;23050;51.776;22.638;2023-05-31T06:34:04;32.10;1.00
37158;DHT22;23050;51.776;22.638;2023-05-31T06:36:30;31.40;1.00
37158;DHT22;23050;51.776;22.638;2023-05-31T06:38:57;31.80;1.00
37158;DHT22;23050;51.776;22.638;2023-05-31T06:41:22;32.90;1.00
37158;DHT22;23050;51.776;22.638;2023-05-31T06:43:48;33.30;1.00
37158;DHT22;23050;51.776;22.638;2023-05-31T06:46:13;30.90;1.00
37158;DHT22;23050;51.776;22.638;2023-05-31T06:48:38;30.30;1.00
37158;DHT22;23050;51.776;22.638;2023-05-31T06:51:04;31.00;1.00
37158;DHT22;23050;51.776;22.638;2023-05-31T06:53:30;31.90;1.00
37158;DHT22;23050;51.776;22.638;2023-05-31T06:55:55;33.30;1.00
37158;DHT22;23050;51.776;22.638;2023-05-31T06:58:21;34.20;1.00
37158;DHT22;23050;51.776;22.638;2023-05-31T07:00:46;34.60;1.00
37158;DHT22;23050;51.776;22.638;2023-05-31T07:03:12;35.40;1.00
37158;DHT22;23050;51.776;22.638;2023-05-31T07:05:38;35.30;1.00
37158;DHT22;23050;51.776;22.638;2023-05-31T07:08:05;35.10;1.00
37158;DHT22;23050;51.776;22.638;2023-05-31T07:10:31;34.90;1.00
37158;DHT22;23050;51.776;22.638;2023-05-31T07:12:56;35.00;1.00
37158;DHT22;23050;51.776;22.638;2023-05-31T07:15:22;33.70;1.00
37158;DHT22;23050;51.776;22.638;2023-05-31T07:17:47;33.10;1.00
37158;DHT22;23050;51.776;22.638;2023-05-31T07:20:13;33.40;1.00
37158;DHT22;23050;51.776;22.638;2023-05-31T07:22:38;32.60;1.00
37158;DHT22;23050;51.776;22.638;2023-05-31T07:25:04;32.90;1.00
37158;DHT22;23050;51.776;22.638;2023-05-31T07:27:30;33.60;1.00
37158;DHT22;23050;51.776;22.638;2023-05-31T07:29:56;34.00;1.00
37158;DHT22;23050;51.776;22.638;2023-05-31T07:32:21;34.60;1.00
37158;DHT22;23050;51.776;22.638;2023-05-31T07:34:47;34.20;1.00
37158;DHT22;23050;51.776;22.638;2023-05-31T07:37:13;33.40;1.00
37158;DHT22;23050;51.776;22.638;2023-05-31T07:39:38;31.80;1.00
37158;DHT22;23050;51.776;22.638;2023-05-31T07:42:04;31.60;1.00
37158;DHT22;23050;51.776;22.638;2023-05-31T07:44:29;32.40;1.00
37158;DHT22;23050;51.776;22.638;2023-05-31T07:46:55;32.40;1.00
37158;DHT22;23050;51.776;22.638;2023-05-31T07:49:21;32.40;1.00
37158;DHT22;23050;51.776;22.638;2023-05-31T07:51:46;33.40;1.00
37158;DHT22;23050;51.776;22.638;2023-05-31T07:54:11;33.40;1.00
37158;DHT22;23050;51.776;22.638;2023-05-31T07:56:37;33.50;1.00
37158;DHT22;23050;51.776;22.638;2023-05-31T07:59:02;33.70;1.00
37158;DHT22;23050;51.776;22.638;2023-05-31T08:01:28;34.30;1.00
37158;DHT22;23050;51.776;22.638;2023-05-31T08:03:54;33.30;1.00
37158;DHT22;23050;51.776;22.638;2023-05-31T08:06:20;33.90;1.00
37158;DHT22;23050;51.776;22.638;2023-05-31T08:08:45;35.00;1.00
37158;DHT22;23050;51.776;22.638;2023-05-31T08:11:11;35.90;1.00
37158;DHT22;23050;51.776;22.638;2023-05-31T08:13:36;36.20;1.00
37158;DHT22;23050;51.776;22.638;2023-05-31T08:16:03;35.80;1.00
37158;DHT22;23050;51.776;22.638;2023-05-31T08:18:29;33.60;1.00
37158;DHT22;23050;51.776;22.638;2023-05-31T08:20:54;33.20;1.00
37158;DHT22;23050;51.776;22.638;2023-05-31T08:23:20;33.60;1.00
37158;DHT22;23050;51.776;22.638;2023-05-31T08:25:46;34.30;1.00
37158;DHT22;23050;51.776;22.638;2023-05-31T08:28:12;35.60;1.00
37158;DHT22;23050;51.776;22.638;2023-05-31T08:30:37;33.20;1.00
37158;DHT22;23050;51.776;22.638;2023-05-31T08:33:03;30.90;1.00
37158;DHT22;23050;51.776;22.638;2023-05-31T08:35:28;28.40;1.00
37158;DHT22;23050;51.776;22.638;2023-05-31T08:37:54;27.90;1.00
37158;DHT22;23050;51.776;22.638;2023-05-31T08:40:22;28.80;1.00
37158;DHT22;23050;51.776;22.638;2023-05-31T08:42:55;29.80;1.00
37158;DHT22;23050;51.776;22.638;2023-05-31T08:45:20;30.20;1.00
37158;DHT22;23050;51.776;22.638;2023-05-31T08:47:51;31.60;1.00
37158;DHT22;23050;51.776;22.638;2023-05-31T08:50:19;31.90;1.00
37158;DHT22;23050;51.776;22.638;2023-05-31T08:52:46;32.10;1.00
37158;DHT22;23050;51.776;22.638;2023-05-31T08:55:11;32.10;1.00
37158;DHT22;23050;51.776;22.638;2023-05-31T08:57:37;33.10;1.00
37158;DHT22;23050;51.776;22.638;2023-05-31T09:00:03;33.90;1.00
37158;DHT22;23050;51.776;22.638;2023-05-31T09:02:36;34.50;1.00
37158;DHT22;23050;51.776;22.638;2023-05-31T09:05:02;33.80;1.00
37158;DHT22;23050;51.776;22.638;2023-05-31T09:07:27;32.30;1.00
37158;DHT22;23050;51.776;22.638;2023-05-31T09:09:53;31.80;1.00
37158;DHT22;23050;51.776;22.638;2023-05-31T09:12:19;32.60;1.00
37158;DHT22;23050;51.776;22.638;2023-05-31T09:14:44;33.20;1.00
37158;DHT22;23050;51.776;22.638;2023-05-31T09:17:10;34.00;1.00
37158;DHT22;23050;51.776;22.638;2023-05-31T09:19:39;33.60;1.00
37158;DHT22;23050;51.776;22.638;2023-05-31T09:22:05;33.90;1.00
37158;DHT22;23050;51.776;22.638;2023-05-31T09:24:31;33.70;1.00
37158;DHT22;23050;51.776;22.638;2023-05-31T09:26:56;33.80;1.00
37158;DHT22;23050;51.776;22.638;2023-05-31T09:29:22;34.00;1.00
37158;DHT22;23050;51.776;22.638;2023-05-31T09:31:48;33.50;1.00
37158;DHT22;23050;51.776;22.638;2023-05-31T09:34:27;33.10;1.00
37158;DHT22;23050;51.776;22.638;2023-05-31T09:36:56;32.90;1.00
37158;DHT22;23050;51.776;22.638;2023-05-31T09:39:22;30.90;1.00
37158;DHT22;23050;51.776;22.638;2023-05-31T09:41:48;29.40;1.00
37158;DHT22;23050;51.776;22.638;2023-05-31T09:44:14;29.80;1.00
37158;DHT22;23050;51.776;22.638;2023-05-31T09:46:39;30.30;1.00
37158;DHT22;23050;51.776;22.638;2023-05-31T09:49:05;28.90;1.00
37158;DHT22;23050;51.776;22.638;2023-05-31T09:51:32;28.80;1.00
37158;DHT22;23050;51.776;22.638;2023-05-31T09:53:59;30.10;1.00
37158;DHT22;23050;51.776;22.638;2023-05-31T09:56:25;30.90;1.00
37158;DHT22;23050;51.776;22.638;2023-05-31T09:58:54;31.60;1.00
37158;DHT22;23050;51.776;22.638;2023-05-31T10:01:20;31.30;1.00
37158;DHT22;23050;51.776;22.638;2023-05-31T10:03:47;30.40;1.00
37158;DHT22;23050;51.776;22.638;2023-05-31T10:06:13;30.30;1.00
37158;DHT22;23050;51.776;22.638;2023-05-31T10:08:40;30.40;1.00
37158;DHT22;23050;51.776;22.638;2023-05-31T10:11:06;29.20;1.00
37158;DHT22;23050;51.776;22.638;2023-05-31T10:13:33;29.00;1.00
37158;DHT22;23050;51.776;22.638;2023-05-31T10:16:04;28.80;1.00
37158;DHT22;23050;51.776;22.638;2023-05-31T10:18:31;28.50;1.00
37158;DHT22;23050;51.776;22.638;2023-05-31T10:21:16;28.90;1.00
37158;DHT22;23050;51.776;22.638;2023-05-31T10:23:55;29.70;1.00
37158;DHT22;23050;51.776;22.638;2023-05-31T10:26:22;29.90;1.00
37158;DHT22;23050;51.776;22.638;2023-05-31T10:31:16;30.30;1.00
37158;DHT22;23050;51.776;22.638;2023-05-31T10:33:45;30.20;1.00
37158;DHT22;23050;51.776;22.638;2023-05-31T10:36:11;30.30;1.00
37158;DHT22;23050;51.776;22.638;2023-05-31T10:38:42;30.40;1.00
37158;DHT22;23050;51.776;22.638;2023-05-31T10:41:13;30.90;1.00
37158;DHT22;23050;51.776;22.638;2023-05-31T10:43:48;30.70;1.00
37158;DHT22;23050;51.776;22.638;2023-05-31T10:46:19;30.00;1.00
37158;DHT22;23050;51.776;22.638;2023-05-31T10:48:52;30.20;1.00
37158;DHT22;23050;51.776;22.638;2023-05-31T10:51:18;30.40;1.00
37158;DHT22;23050;51.776;22.638;2023-05-31T10:53:44;30.50;1.00
37158;DHT22;23050;51.776;22.638;2023-05-31T10:56:11;29.50;1.00
37158;DHT22;23050;51.776;22.638;2023-05-31T10:58:42;29.50;1.00
37158;DHT22;23050;51.776;22.638;2023-05-31T11:01:12;29.00;1.00
37158;DHT22;23050;51.776;22.638;2023-05-31T11:04:17;29.00;1.00
37158;DHT22;23050;51.776;22.638;2023-05-31T11:06:31;28.80;1.00
37158;DHT22;23050;51.776;22.638;2023-05-31T11:09:01;29.00;1.00
37158;DHT22;23050;51.776;22.638;2023-05-31T11:14:00;28.90;1.00
37158;DHT22;23050;51.776;22.638;2023-05-31T11:16:26;28.10;1.00
37158;DHT22;23050;51.776;22.638;2023-05-31T11:19:53;28.10;1.00
37158;DHT22;23050;51.776;22.638;2023-05-31T11:22:09;28.20;1.00
37158;DHT22;23050;51.776;22.638;2023-05-31T11:24:47;28.40;1.00
37158;DHT22;23050;51.776;22.638;2023-05-31T11:27:16;28.90;1.00
37158;DHT22;23050;51.776;22.638;2023-05-31T11:32:13;28.40;1.00
37158;DHT22;23050;51.776;22.638;2023-05-31T11:37:13;28.10;1.00
37158;DHT22;23050;51.776;22.638;2023-05-31T11:39:44;28.00;1.00
37158;DHT22;23050;51.776;22.638;2023-05-31T11:42:10;28.30;1.00
37158;DHT22;23050;51.776;22.638;2023-05-31T11:44:40;28.20;1.00
37158;DHT22;23050;51.776;22.638;2023-05-31T11:47:06;28.40;1.00
37158;DHT22;23050;51.776;22.638;2023-05-31T11:49:34;28.50;1.00
37158;DHT22;23050;51.776;22.638;2023-05-31T11:52:00;28.30;1.00
37158;DHT22;23050;51.776;22.638;2023-05-31T11:54:26;27.80;1.00
37158;DHT22;23050;51.776;22.638;2023-05-31T11:56:54;26.50;1.00
37158;DHT22;23050;51.776;22.638;2023-05-31T11:59:21;26.30;1.00
37158;DHT22;23050;51.776;22.638;2023-05-31T12:01:46;26.60;1.00
37158;DHT22;23050;51.776;22.638;2023-05-31T12:04:12;27.20;1.00
37158;DHT22;23050;51.776;22.638;2023-05-31T12:06:37;27.50;1.00
37158;DHT22;23050;51.776;22.638;2023-05-31T12:09:03;27.70;1.00
37158;DHT22;23050;51.776;22.638;2023-05-31T12:11:34;27.70;1.00
37158;DHT22;23050;51.776;22.638;2023-05-31T12:13:59;27.50;1.00
37158;DHT22;23050;51.776;22.638;2023-05-31T12:16:25;27.60;1.00
37158;DHT22;23050;51.776;22.638;2023-05-31T12:18:51;27.70;1.00
37158;DHT22;23050;51.776;22.638;2023-05-31T12:21:18;27.90;1.00
37158;DHT22;23050;51.776;22.638;2023-05-31T12:23:56;27.70;1.00
37158;DHT22;23050;51.776;22.638;2023-05-31T12:26:23;27.10;1.00
37158;DHT22;23050;51.776;22.638;2023-05-31T12:28:50;26.60;1.00
37158;DHT22;23050;51.776;22.638;2023-05-31T12:31:22;26.80;1.00
37158;DHT22;23050;51.776;22.638;2023-05-31T12:33:52;27.40;1.00
37158;DHT22;23050;51.776;22.638;2023-05-31T12:36:22;27.90;1.00
37158;DHT22;23050;51.776;22.638;2023-05-31T12:38:52;28.10;1.00
37158;DHT22;23050;51.776;22.638;2023-05-31T12:41:17;28.30;1.00
37158;DHT22;23050;51.776;22.638;2023-05-31T12:43:43;27.80;1.00
37158;DHT22;23050;51.776;22.638;2023-05-31T12:46:08;27.40;1.00
37158;DHT22;23050;51.776;22.638;2023-05-31T12:48:34;26.90;1.00
37158;DHT22;23050;51.776;22.638;2023-05-31T12:51:00;26.60;1.00
37158;DHT22;23050;51.776;22.638;2023-05-31T12:53:25;26.70;1.00
37158;DHT22;23050;51.776;22.638;2023-05-31T12:55:51;26.40;1.00
37158;DHT22;23050;51.776;22.638;2023-05-31T12:58:17;26.80;1.00
37158;DHT22;23050;51.776;22.638;2023-05-31T13:00:42;26.90;1.00
37158;DHT22;23050;51.776;22.638;2023-05-31T13:03:09;26.90;1.00
37158;DHT22;23050;51.776;22.638;2023-05-31T13:05:39;27.10;1.00
37158;DHT22;23050;51.776;22.638;2023-05-31T13:08:04;27.20;1.00
37158;DHT22;23050;51.776;22.638;2023-05-31T13:10:30;27.50;1.00
37158;DHT22;23050;51.776;22.638;2023-05-31T13:16:38;27.80;1.00
37158;DHT22;23050;51.776;22.638;2023-05-31T13:19:04;28.40;1.00
37158;DHT22;23050;51.776;22.638;2023-05-31T13:21:31;29.00;1.00
37158;DHT22;23050;51.776;22.638;2023-05-31T13:23:57;29.10;1.00
37158;DHT22;23050;51.776;22.638;2023-05-31T13:26:23;29.60;1.00
37158;DHT22;23050;51.776;22.638;2023-05-31T13:28:49;29.90;1.00
37158;DHT22;23050;51.776;22.638;2023-05-31T13:31:15;30.20;1.00
37158;DHT22;23050;51.776;22.638;2023-05-31T13:33:41;29.00;1.00
37158;DHT22;23050;51.776;22.638;2023-05-31T13:36:06;29.10;1.00
37158;DHT22;23050;51.776;22.638;2023-05-31T13:38:32;29.30;1.00
37158;DHT22;23050;51.776;22.638;2023-05-31T13:40:57;29.40;1.00
37158;DHT22;23050;51.776;22.638;2023-05-31T13:43:23;29.30;1.00
37158;DHT22;23050;51.776;22.638;2023-05-31T13:45:49;28.80;1.00
37158;DHT22;23050;51.776;22.638;2023-05-31T13:48:15;29.00;1.00
37158;DHT22;23050;51.776;22.638;2023-05-31T13:50:41;28.70;1.00
37158;DHT22;23050;51.776;22.638;2023-05-31T13:53:07;28.40;1.00
37158;DHT22;23050;51.776;22.638;2023-05-31T13:55:33;27.80;1.00
37158;DHT22;23050;51.776;22.638;2023-05-31T13:57:58;27.50;1.00
37158;DHT22;23050;51.776;22.638;2023-05-31T14:00:24;27.40;1.00
37158;DHT22;23050;51.776;22.638;2023-05-31T14:02:51;27.50;1.00
37158;DHT22;23050;51.776;22.638;2023-05-31T14:05:17;27.80;1.00
37158;DHT22;23050;51.776;22.638;2023-05-31T14:07:43;27.30;1.00
37158;DHT22;23050;51.776;22.638;2023-05-31T14:10:09;27.30;1.00
37158;DHT22;23050;51.776;22.638;2023-05-31T14:12:34;27.30;1.00
37158;DHT22;23050;51.776;22.638;2023-05-31T14:15:00;27.50;1.00
37158;DHT22;23050;51.776;22.638;2023-05-31T14:17:25;28.10;1.00
37158;DHT22;23050;51.776;22.638;2023-05-31T14:19:51;28.20;1.00
37158;DHT22;23050;51.776;22.638;2023-05-31T14:22:17;27.50;1.00
37158;DHT22;23050;51.776;22.638;2023-05-31T14:24:42;26.90;1.00
37158;DHT22;23050;51.776;22.638;2023-05-31T14:27:08;26.90;1.00
37158;DHT22;23050;51.776;22.638;2023-05-31T14:29:33;27.70;1.00
37158;DHT22;23050;51.776;22.638;2023-05-31T14:31:59;27.80;1.00
37158;DHT22;23050;51.776;22.638;2023-05-31T14:34:24;27.30;1.00
37158;DHT22;23050;51.776;22.638;2023-05-31T14:36:51;27.60;1.00
37158;DHT22;23050;51.776;22.638;2023-05-31T14:39:17;27.50;1.00
37158;DHT22;23050;51.776;22.638;2023-05-31T14:41:42;27.60;1.00
37158;DHT22;23050;51.776;22.638;2023-05-31T14:44:08;28.20;1.00
37158;DHT22;23050;51.776;22.638;2023-05-31T14:46:33;28.40;1.00
37158;DHT22;23050;51.776;22.638;2023-05-31T14:48:59;28.70;1.00
37158;DHT22;23050;51.776;22.638;2023-05-31T14:51:24;28.30;1.00
37158;DHT22;23050;51.776;22.638;2023-05-31T14:53:53;28.20;1.00
37158;DHT22;23050;51.776;22.638;2023-05-31T14:56:19;28.60;1.00
37158;DHT22;23050;51.776;22.638;2023-05-31T14:58:44;29.20;1.00
37158;DHT22;23050;51.776;22.638;2023-05-31T15:01:11;28.70;1.00
37158;DHT22;23050;51.776;22.638;2023-05-31T15:03:36;27.90;1.00
37158;DHT22;23050;51.776;22.638;2023-05-31T15:06:02;27.40;1.00
37158;DHT22;23050;51.776;22.638;2023-05-31T15:08:28;26.60;1.00
37158;DHT22;23050;51.776;22.638;2023-05-31T15:10:54;26.40;1.00
37158;DHT22;23050;51.776;22.638;2023-05-31T15:13:20;26.60;1.00
37158;DHT22;23050;51.776;22.638;2023-05-31T15:15:45;26.30;1.00
37158;DHT22;23050;51.776;22.638;2023-05-31T15:18:11;26.30;1.00
37158;DHT22;23050;51.776;22.638;2023-05-31T15:20:36;25.80;1.00
37158;DHT22;23050;51.776;22.638;2023-05-31T15:23:02;25.60;1.00
37158;DHT22;23050;51.776;22.638;2023-05-31T15:25:27;25.80;1.00
37158;DHT22;23050;51.776;22.638;2023-05-31T15:27:58;25.80;1.00
37158;DHT22;23050;51.776;22.638;2023-05-31T15:30:31;25.70;1.00
37158;DHT22;23050;51.776;22.638;2023-05-31T15:32:56;25.70;1.00
37158;DHT22;23050;51.776;22.638;2023-05-31T15:35:22;25.60;1.00
37158;DHT22;23050;51.776;22.638;2023-05-31T15:37:48;25.70;1.00
37158;DHT22;23050;51.776;22.638;2023-05-31T15:40:13;26.00;1.00